createdAt,value
2022-08-12T00:01:01.836Z,15.40
2022-08-12T00:03:47.668Z,15.40
2022-08-12T00:06:33.421Z,15.30
2022-08-12T00:09:24.379Z,15.20
2022-08-12T00:12:11.830Z,15.20
2022-08-12T00:14:57.906Z,15.20
2022-08-12T00:17:44.960Z,15.10
2022-08-12T00:20:30.470Z,15.20
2022-08-12T00:23:16.958Z,15.20
2022-08-12T00:26:23.041Z,15.20
2022-08-12T00:29:09.627Z,15.30
2022-08-12T00:31:55.464Z,15.20
2022-08-12T00:34:42.603Z,15.20
2022-08-12T00:37:28.414Z,15.10
2022-08-12T00:40:14.191Z,15.20
2022-08-12T00:42:42.576Z,15.00
2022-08-12T00:45:11.628Z,15.00
2022-08-12T00:47:40.174Z,15.00
2022-08-12T00:50:18.199Z,15.00
2022-08-12T00:52:47.571Z,15.00
2022-08-12T00:55:15.804Z,15.00
2022-08-12T00:57:47.902Z,15.00
2022-08-12T01:00:17.489Z,14.90
2022-08-12T01:02:49.005Z,14.90
2022-08-12T01:05:37.571Z,14.90
2022-08-12T01:08:23.798Z,14.80
2022-08-12T01:11:09.353Z,14.80
2022-08-12T01:13:47.596Z,14.90
2022-08-12T01:16:17.357Z,14.80
2022-08-12T01:18:45.831Z,14.70
2022-08-12T01:21:19.195Z,14.70
2022-08-12T01:23:50.306Z,14.70
2022-08-12T01:26:21.113Z,14.80
2022-08-12T01:28:51.167Z,14.70
2022-08-12T01:31:20.082Z,14.70
2022-08-12T01:33:53.872Z,14.80
2022-08-12T01:36:22.072Z,14.80
2022-08-12T01:38:50.226Z,14.80
2022-08-12T01:41:19.869Z,14.80
2022-08-12T01:43:48.067Z,14.80
2022-08-12T01:46:22.731Z,14.70
2022-08-12T01:48:59.862Z,14.60
2022-08-12T01:52:19.825Z,14.60
2022-08-12T01:54:32.197Z,14.60
2022-08-12T01:57:06.716Z,14.50
2022-08-12T01:59:50.266Z,14.50
2022-08-12T02:02:19.971Z,14.50
2022-08-12T02:05:16.010Z,14.50
2022-08-12T02:08:05.141Z,14.40
2022-08-12T02:10:58.794Z,14.40
2022-08-12T02:14:03.572Z,14.40
2022-08-12T02:16:45.639Z,14.40
2022-08-12T02:19:22.022Z,14.40
2022-08-12T02:21:57.483Z,14.30
2022-08-12T02:24:26.090Z,14.30
2022-08-12T02:26:56.682Z,14.40
2022-08-12T02:29:26.382Z,14.40
2022-08-12T02:31:54.596Z,14.30
2022-08-12T02:34:23.158Z,14.40
2022-08-12T02:36:51.534Z,14.50
2022-08-12T02:39:19.994Z,14.40
2022-08-12T02:41:48.699Z,14.40
2022-08-12T02:44:17.056Z,14.50
2022-08-12T02:46:50.418Z,14.50
2022-08-12T02:49:20.812Z,14.40
2022-08-12T02:51:48.996Z,14.40
2022-08-12T02:54:17.475Z,14.30
2022-08-12T02:56:47.183Z,14.30
2022-08-12T02:59:20.459Z,14.30
2022-08-12T03:01:51.724Z,14.20
2022-08-12T03:04:24.587Z,14.30
2022-08-12T03:07:01.296Z,14.20
2022-08-12T03:09:33.298Z,14.20
2022-08-12T03:12:19.952Z,14.20
2022-08-12T03:14:49.340Z,14.20
2022-08-12T03:17:21.321Z,14.10
2022-08-12T03:20:10.487Z,14.10
2022-08-12T03:22:40.783Z,14.00
2022-08-12T03:25:11.684Z,14.00
2022-08-12T03:27:42.111Z,14.00
2022-08-12T03:30:11.212Z,14.10
2022-08-12T03:32:41.602Z,14.10
2022-08-12T03:35:38.356Z,14.10
2022-08-12T03:38:02.198Z,14.10
2022-08-12T03:40:50.540Z,14.00
2022-08-12T03:43:37.779Z,14.10
2022-08-12T03:46:28.419Z,14.00
2022-08-12T03:49:15.626Z,14.00
2022-08-12T03:52:00.994Z,14.00
2022-08-12T03:54:46.862Z,14.00
2022-08-12T03:57:32.689Z,13.90
2022-08-12T04:00:24.210Z,14.00
2022-08-12T04:02:59.204Z,14.00
2022-08-12T04:05:50.781Z,14.10
2022-08-12T04:08:17.515Z,14.10
2022-08-12T04:11:03.342Z,14.10
2022-08-12T04:13:31.628Z,14.00
2022-08-12T04:16:02.254Z,14.00
2022-08-12T04:18:30.765Z,14.10
2022-08-12T04:21:02.699Z,14.10
2022-08-12T04:23:31.604Z,14.00
2022-08-12T04:25:59.742Z,14.00
2022-08-12T04:28:28.638Z,14.10
2022-08-12T04:30:57.283Z,14.00
2022-08-12T04:33:27.048Z,14.00
2022-08-12T04:35:55.273Z,14.10
2022-08-12T04:38:24.817Z,14.10
2022-08-12T04:40:53.764Z,14.20
2022-08-12T04:44:00.098Z,14.20
2022-08-12T04:46:10.310Z,14.30
2022-08-12T04:48:38.761Z,14.40
2022-08-12T04:51:09.217Z,14.40
2022-08-12T04:53:38.889Z,14.50
2022-08-12T04:56:07.469Z,14.50
2022-08-12T04:58:36.420Z,14.60
2022-08-12T05:01:04.651Z,14.70
2022-08-12T05:03:46.282Z,14.70
2022-08-12T05:06:16.982Z,14.80
2022-08-12T05:08:56.690Z,14.90
2022-08-12T05:11:25.145Z,15.00
2022-08-12T05:13:59.822Z,15.00
2022-08-12T05:16:31.101Z,15.10
2022-08-12T05:19:01.441Z,15.10
2022-08-12T05:21:30.946Z,15.20
2022-08-12T05:24:00.574Z,15.20
2022-08-12T05:26:29.496Z,15.20
2022-08-12T05:28:57.734Z,15.30
2022-08-12T05:31:40.384Z,15.30
2022-08-12T05:34:15.686Z,15.40
2022-08-12T05:36:44.905Z,15.50
2022-08-12T05:39:14.690Z,15.50
2022-08-12T05:41:42.901Z,15.50
2022-08-12T05:44:12.852Z,15.60
2022-08-12T05:46:41.314Z,15.60
2022-08-12T05:49:09.674Z,15.70
2022-08-12T05:51:40.782Z,15.70
2022-08-12T05:54:10.022Z,15.70
2022-08-12T05:56:40.212Z,15.80
2022-08-12T05:59:08.708Z,15.80
2022-08-12T06:02:12.216Z,15.80
2022-08-12T06:04:25.306Z,15.80
2022-08-12T06:06:53.779Z,15.90
2022-08-12T06:09:22.877Z,15.90
2022-08-12T06:12:04.823Z,16.00
2022-08-12T06:14:37.831Z,16.00
2022-08-12T06:17:08.694Z,16.10
2022-08-12T06:20:27.548Z,16.10
2022-08-12T06:22:26.791Z,16.20
2022-08-12T06:24:55.138Z,16.20
2022-08-12T06:27:24.707Z,16.20
2022-08-12T06:30:07.174Z,16.30
2022-08-12T06:32:51.801Z,16.40
2022-08-12T06:35:48.375Z,16.40
2022-08-12T06:38:18.151Z,16.40
2022-08-12T06:41:04.504Z,16.50
2022-08-12T06:44:07.126Z,16.60
2022-08-12T06:46:23.359Z,16.70
2022-08-12T06:48:52.209Z,16.70
2022-08-12T06:51:20.810Z,16.80
2022-08-12T06:53:49.014Z,16.90
2022-08-12T06:56:17.712Z,16.90
2022-08-12T06:58:47.510Z,16.90
2022-08-12T07:01:17.619Z,17.00
2022-08-12T07:03:45.962Z,17.00
2022-08-12T07:06:14.180Z,17.10
2022-08-12T07:08:44.368Z,17.20
2022-08-12T07:11:13.752Z,17.20
2022-08-12T07:14:11.830Z,17.30
2022-08-12T07:16:48.263Z,17.30
2022-08-12T07:19:16.841Z,17.40
2022-08-12T07:22:00.418Z,17.50
2022-08-12T07:24:31.130Z,17.50
2022-08-12T07:26:59.377Z,17.50
2022-08-12T07:30:04.977Z,17.50
2022-08-12T07:32:18.383Z,17.60
2022-08-12T07:34:47.439Z,17.70
2022-08-12T07:37:17.862Z,17.80
2022-08-12T07:39:50.985Z,17.80
2022-08-12T07:42:29.273Z,17.90
2022-08-12T07:44:57.514Z,18.00
2022-08-12T07:47:27.915Z,18.10
2022-08-12T07:50:05.745Z,18.20
2022-08-12T07:52:34.852Z,18.20
2022-08-12T07:55:03.164Z,18.30
2022-08-12T07:57:32.609Z,18.30
2022-08-12T08:00:04.967Z,18.40
2022-08-12T08:02:35.877Z,18.50
2022-08-12T08:05:04.457Z,18.60
2022-08-12T08:07:32.620Z,18.70
2022-08-12T08:10:01.379Z,18.70
2022-08-12T08:12:47.569Z,18.70
2022-08-12T08:15:16.781Z,18.80
2022-08-12T08:17:59.771Z,18.80
2022-08-12T08:20:29.597Z,18.80
2022-08-12T08:22:58.562Z,18.90
2022-08-12T08:25:36.457Z,18.90
2022-08-12T08:28:07.070Z,19.00
2022-08-12T08:30:35.254Z,19.00
2022-08-12T08:33:23.415Z,19.10
2022-08-12T08:35:54.888Z,19.10
2022-08-12T08:38:33.068Z,19.10
2022-08-12T08:42:13.804Z,19.10
2022-08-12T08:44:10.895Z,19.20
2022-08-12T08:46:39.685Z,19.10
2022-08-12T08:49:09.347Z,19.20
2022-08-12T08:51:39.106Z,19.30
2022-08-12T08:54:08.789Z,19.40
2022-08-12T08:56:44.030Z,19.50
2022-08-12T08:59:12.505Z,19.50
2022-08-12T09:01:40.764Z,19.60
2022-08-12T09:05:07.832Z,19.70
2022-08-12T09:07:17.959Z,19.70
2022-08-12T09:10:02.194Z,19.70
2022-08-12T09:12:55.271Z,19.80
2022-08-12T09:15:35.289Z,19.90
2022-08-12T09:18:08.960Z,20.00
2022-08-12T09:20:39.574Z,20.10
2022-08-12T09:23:57.406Z,20.30
2022-08-12T09:26:04.065Z,20.30
2022-08-12T09:28:33.529Z,20.40
2022-08-12T09:31:04.756Z,20.40
2022-08-12T09:34:25.677Z,20.50
2022-08-12T09:37:00.338Z,20.40
2022-08-12T09:40:01.444Z,20.50
2022-08-12T09:42:43.409Z,20.50
2022-08-12T09:46:19.884Z,20.60
2022-08-12T09:48:19.984Z,20.80
2022-08-12T09:50:51.659Z,20.80
2022-08-12T09:53:36.491Z,21.00
2022-08-12T09:56:59.460Z,21.10
2022-08-12T09:59:00.096Z,21.30
2022-08-12T10:01:35.264Z,21.20
2022-08-12T10:04:19.803Z,21.20
2022-08-12T10:06:54.117Z,21.10
2022-08-12T10:09:28.483Z,21.20
2022-08-12T10:12:33.452Z,21.40
2022-08-12T10:15:02.356Z,21.40
2022-08-12T10:17:30.696Z,21.50
2022-08-12T10:19:59.746Z,21.70
2022-08-12T10:22:39.980Z,21.80
2022-08-12T10:25:51.659Z,21.90
2022-08-12T10:28:41.353Z,22.00
2022-08-12T10:31:29.567Z,22.20
2022-08-12T10:34:23.602Z,22.30
2022-08-12T10:36:57.403Z,22.40
2022-08-12T10:39:59.969Z,22.50
2022-08-12T10:42:34.910Z,22.50
2022-08-12T10:45:04.357Z,22.70
2022-08-12T10:48:07.610Z,22.80
2022-08-12T10:50:29.627Z,22.90
2022-08-12T10:53:09.601Z,23.00
2022-08-12T10:55:37.939Z,23.10
2022-08-12T10:58:27.356Z,23.20
2022-08-12T11:01:49.879Z,23.30
2022-08-12T11:04:31.667Z,23.30
2022-08-12T11:07:08.851Z,23.30
2022-08-12T11:09:41.527Z,23.50
2022-08-12T11:12:54.561Z,23.50
2022-08-12T11:15:00.466Z,23.50
2022-08-12T11:17:53.564Z,23.50
2022-08-12T11:20:24.410Z,23.60
2022-08-12T11:22:59.266Z,23.60
2022-08-12T11:25:53.740Z,23.50
2022-08-12T11:28:16.260Z,23.50
2022-08-12T11:30:45.956Z,23.70
2022-08-12T11:33:23.949Z,23.80
2022-08-12T11:35:57.633Z,23.90
2022-08-12T11:38:28.056Z,23.90
2022-08-12T11:40:56.302Z,24.00
2022-08-12T11:43:26.265Z,24.00
2022-08-12T11:46:00.693Z,24.10
2022-08-12T11:48:31.339Z,24.20
2022-08-12T11:51:17.582Z,24.30
2022-08-12T11:53:57.457Z,24.30
2022-08-12T11:56:38.301Z,24.40
2022-08-12T12:02:01.923Z,24.40
2022-08-12T12:04:34.161Z,24.20
2022-08-12T12:07:07.158Z,24.00
2022-08-12T12:09:51.973Z,23.90
2022-08-12T12:12:21.551Z,24.00
2022-08-12T12:14:54.521Z,24.10
2022-08-12T12:17:25.383Z,24.20
2022-08-12T12:19:53.921Z,24.40
2022-08-12T12:22:27.126Z,24.40
2022-08-12T12:25:13.230Z,24.50
2022-08-12T12:28:06.092Z,24.60
2022-08-12T12:30:35.193Z,24.70
2022-08-12T12:33:05.614Z,24.60
2022-08-12T12:36:05.870Z,24.60
2022-08-12T12:38:25.225Z,24.70
2022-08-12T12:40:54.121Z,24.70
2022-08-12T12:43:42.599Z,24.70
2022-08-12T12:46:11.308Z,24.80
2022-08-12T12:48:44.326Z,25.00
2022-08-12T12:51:48.361Z,25.10
2022-08-12T12:54:09.899Z,25.00
2022-08-12T12:56:43.008Z,25.00
2022-08-12T12:59:54.624Z,24.90
2022-08-12T13:02:02.108Z,24.70
2022-08-12T13:04:37.962Z,24.70
2022-08-12T13:07:06.861Z,24.80
2022-08-12T13:09:36.153Z,24.70
2022-08-12T13:12:09.080Z,24.90
2022-08-12T13:14:40.104Z,25.00
2022-08-12T13:17:14.542Z,25.10
2022-08-12T13:19:48.344Z,25.20
2022-08-12T13:22:20.093Z,25.20
2022-08-12T13:24:52.194Z,25.20
2022-08-12T13:27:35.629Z,25.30
2022-08-12T13:30:06.871Z,25.30
2022-08-12T13:32:39.364Z,25.30
2022-08-12T13:35:20.376Z,25.20
2022-08-12T13:37:59.321Z,24.90
2022-08-12T13:40:32.107Z,24.90
2022-08-12T13:43:01.825Z,24.70
2022-08-12T13:45:31.068Z,24.90
2022-08-12T13:48:01.813Z,25.00
2022-08-12T13:50:33.353Z,25.10
2022-08-12T13:53:23.457Z,25.10
2022-08-12T13:56:01.943Z,25.20
2022-08-12T13:58:33.118Z,25.20
2022-08-12T14:01:05.907Z,25.20
2022-08-12T14:03:51.578Z,25.30
2022-08-12T14:06:21.883Z,25.20
2022-08-12T14:08:54.773Z,25.30
2022-08-12T14:11:25.502Z,25.30
2022-08-12T14:14:03.190Z,25.30
2022-08-12T14:16:49.012Z,25.30
2022-08-12T14:19:24.312Z,25.30
2022-08-12T14:22:00.857Z,25.30
2022-08-12T14:24:40.505Z,25.30
2022-08-12T14:27:10.428Z,25.30
2022-08-12T14:30:05.548Z,25.30
2022-08-12T14:32:35.633Z,25.30
2022-08-12T14:35:09.501Z,25.20
2022-08-12T14:37:55.867Z,25.20
2022-08-12T14:40:28.656Z,25.20
2022-08-12T14:42:58.567Z,25.10
2022-08-12T14:45:45.443Z,25.20
2022-08-12T14:48:15.704Z,25.00
2022-08-12T14:52:10.505Z,25.10
2022-08-12T14:59:56.814Z,25.10
2022-08-12T15:02:20.869Z,25.10
2022-08-12T15:04:56.239Z,25.00
2022-08-12T15:07:34.433Z,25.00
2022-08-12T15:10:14.990Z,25.00
2022-08-12T15:13:00.498Z,25.00
2022-08-12T15:15:33.802Z,25.10
2022-08-12T15:18:03.954Z,25.10
2022-08-12T15:20:38.115Z,25.00
2022-08-12T15:23:17.619Z,25.10
2022-08-12T15:26:02.676Z,25.10
2022-08-12T15:28:33.045Z,25.10
2022-08-12T15:31:02.371Z,25.10
2022-08-12T15:33:45.054Z,25.10
2022-08-12T15:36:14.719Z,25.10
2022-08-12T15:38:47.961Z,25.00
2022-08-12T15:41:22.247Z,25.00
2022-08-12T15:44:36.653Z,25.00
2022-08-12T15:46:39.512Z,25.00
2022-08-12T15:49:16.946Z,25.00
2022-08-12T15:51:58.629Z,25.00
2022-08-12T15:54:34.955Z,24.90
2022-08-12T15:57:10.829Z,25.00
2022-08-12T16:00:00.591Z,24.90
2022-08-12T16:02:47.293Z,24.90
2022-08-12T16:06:19.506Z,24.90
2022-08-12T16:08:13.281Z,24.90
2022-08-12T16:10:45.874Z,24.90
2022-08-12T16:13:32.821Z,24.70
2022-08-12T16:16:22.602Z,24.70
2022-08-12T16:18:56.150Z,24.70
2022-08-12T16:21:51.094Z,24.70
2022-08-12T16:24:14.446Z,24.60
2022-08-12T16:26:45.150Z,24.50
2022-08-12T16:29:52.508Z,24.50
2022-08-12T16:32:24.620Z,24.50
2022-08-12T16:35:00.721Z,24.40
2022-08-12T16:38:25.408Z,24.40
2022-08-12T16:40:21.948Z,24.30
2022-08-12T16:42:54.047Z,24.30
2022-08-12T16:45:32.405Z,24.30
2022-08-12T16:48:34.174Z,24.20
2022-08-12T16:51:09.256Z,24.20
2022-08-12T16:53:43.918Z,24.20
2022-08-12T16:56:16.921Z,24.10
2022-08-12T16:58:47.203Z,24.10
2022-08-12T17:01:19.699Z,24.10
2022-08-12T17:04:08.372Z,24.00
2022-08-12T17:06:43.383Z,23.90
2022-08-12T17:09:17.939Z,23.90
2022-08-12T17:11:49.547Z,23.90
2022-08-12T17:14:23.159Z,23.80
2022-08-12T17:16:55.568Z,23.80
2022-08-12T17:20:35.131Z,23.80
2022-08-12T17:22:16.723Z,23.70
2022-08-12T17:24:55.709Z,23.70
2022-08-12T17:27:24.911Z,23.60
2022-08-12T17:30:03.055Z,23.60
2022-08-12T17:32:36.869Z,23.50
2022-08-12T17:35:23.522Z,23.40
2022-08-12T17:37:59.645Z,23.40
2022-08-12T17:40:36.253Z,23.40
2022-08-12T17:43:52.045Z,23.30
2022-08-12T17:45:58.694Z,23.30
2022-08-12T17:48:34.847Z,23.30
2022-08-12T17:51:15.433Z,23.30
2022-08-12T17:54:06.116Z,23.20
2022-08-12T17:56:37.340Z,23.20
2022-08-12T17:59:07.469Z,23.20
2022-08-12T18:01:36.039Z,23.20
2022-08-12T18:04:21.269Z,23.10
2022-08-12T18:06:50.881Z,23.00
2022-08-12T18:09:19.384Z,23.10
2022-08-12T18:12:07.710Z,23.00
2022-08-12T18:14:40.928Z,23.00
2022-08-12T18:17:10.226Z,23.00
2022-08-12T18:20:05.871Z,22.90
2022-08-12T18:22:32.733Z,22.90
2022-08-12T18:25:03.945Z,22.80
2022-08-12T18:27:44.729Z,22.80
2022-08-12T18:30:20.813Z,22.80
2022-08-12T18:33:04.016Z,22.70
2022-08-12T18:35:47.617Z,22.70
2022-08-12T18:38:22.635Z,22.60
2022-08-12T18:41:07.026Z,22.70
2022-08-12T18:43:39.129Z,22.60
2022-08-12T18:46:27.464Z,22.60
2022-08-12T18:49:02.474Z,22.50
2022-08-12T18:51:54.771Z,22.40
2022-08-12T18:54:25.713Z,22.40
2022-08-12T18:56:54.037Z,22.40
2022-08-12T19:00:01.145Z,22.40
2022-08-12T19:02:20.013Z,22.30
2022-08-12T19:04:53.329Z,22.30
2022-08-12T19:07:24.552Z,22.20
2022-08-12T19:09:58.388Z,22.20
2022-08-12T19:12:57.422Z,22.20
2022-08-12T19:15:27.408Z,22.10
2022-08-12T19:18:01.127Z,22.10
2022-08-12T19:20:32.984Z,22.10
2022-08-12T19:23:08.025Z,22.10
2022-08-12T19:26:01.477Z,22.00
2022-08-12T19:28:35.386Z,21.90
2022-08-12T19:31:45.291Z,21.90
2022-08-12T19:34:56.417Z,21.80
2022-08-12T19:37:17.321Z,21.80
2022-08-12T19:40:09.470Z,21.70
2022-08-12T19:42:41.321Z,21.60
2022-08-12T19:45:12.325Z,21.70
2022-08-12T19:47:44.783Z,21.60
2022-08-12T19:50:19.886Z,21.50
2022-08-12T19:52:53.334Z,21.50
2022-08-12T19:55:24.807Z,21.50
2022-08-12T19:58:02.410Z,21.50
2022-08-12T20:00:34.610Z,21.40
2022-08-12T20:03:04.874Z,21.40
2022-08-12T20:06:07.059Z,21.30
2022-08-12T20:08:34.184Z,21.30
2022-08-12T20:12:14.379Z,21.30
2022-08-12T20:14:01.244Z,21.30
2022-08-12T20:17:01.976Z,21.30
2022-08-12T20:19:52.188Z,21.30
2022-08-12T20:22:23.378Z,21.40
2022-08-12T20:24:55.111Z,21.30
2022-08-12T20:28:04.327Z,21.20
2022-08-12T20:30:20.685Z,21.20
2022-08-12T20:33:06.257Z,21.20
2022-08-12T20:36:13.615Z,21.10
2022-08-12T20:38:38.397Z,21.10
2022-08-12T20:41:18.951Z,21.00
2022-08-12T20:43:50.509Z,21.00
2022-08-12T20:46:20.247Z,21.00
2022-08-12T20:48:55.038Z,21.00
2022-08-12T20:51:27.504Z,21.00
2022-08-12T20:53:58.639Z,21.00
2022-08-12T20:56:33.093Z,20.90
2022-08-12T20:59:04.957Z,20.90
2022-08-12T21:01:46.111Z,20.90
2022-08-12T21:04:34.112Z,20.90
2022-08-12T21:07:04.617Z,20.90
2022-08-12T21:09:40.731Z,20.80
2022-08-12T21:12:27.334Z,20.80
2022-08-12T21:15:24.424Z,20.80
2022-08-12T21:18:09.297Z,20.80
2022-08-12T21:20:39.204Z,20.70
2022-08-12T21:23:09.727Z,20.60
2022-08-12T21:25:45.609Z,20.60
2022-08-12T21:28:14.729Z,20.60
2022-08-12T21:32:34.534Z,20.60
2022-08-12T21:33:58.592Z,20.60
2022-08-12T21:36:22.674Z,20.50
2022-08-12T21:39:02.007Z,20.50
2022-08-12T21:41:50.137Z,20.50
2022-08-12T21:44:24.790Z,20.50
2022-08-12T21:47:20.275Z,20.40
2022-08-12T21:49:54.353Z,20.30
2022-08-12T21:52:33.911Z,20.30
2022-08-12T21:55:02.662Z,20.30
2022-08-12T21:57:36.285Z,20.30
2022-08-12T22:00:17.172Z,20.20
2022-08-12T22:03:04.766Z,20.20
2022-08-12T22:05:46.995Z,20.10
2022-08-12T22:08:21.978Z,20.20
2022-08-12T22:10:52.228Z,20.10
2022-08-12T22:14:07.339Z,20.10
2022-08-12T22:16:09.131Z,20.00
2022-08-12T22:18:40.802Z,20.00
2022-08-12T22:21:09.175Z,19.90
2022-08-12T22:23:52.348Z,19.90
2022-08-12T22:26:37.702Z,19.80
2022-08-12T22:29:23.325Z,19.80
2022-08-12T22:31:54.676Z,19.80
2022-08-12T22:34:29.440Z,19.80
2022-08-12T22:36:58.399Z,19.80
2022-08-12T22:39:27.227Z,19.80
2022-08-12T22:42:12.821Z,19.70
2022-08-12T22:44:58.369Z,19.70
2022-08-12T22:47:53.391Z,19.70
2022-08-12T22:50:28.873Z,19.70
2022-08-12T22:53:15.147Z,19.60
2022-08-12T22:56:00.521Z,19.60
2022-08-12T22:58:33.694Z,19.50
2022-08-12T23:01:03.426Z,19.50
2022-08-12T23:03:48.389Z,19.50
2022-08-12T23:06:21.378Z,19.50
2022-08-12T23:08:50.001Z,19.40
2022-08-12T23:11:23.543Z,19.40
2022-08-12T23:13:55.342Z,19.40
2022-08-12T23:16:29.358Z,19.40
2022-08-12T23:19:01.800Z,19.30
2022-08-12T23:22:03.997Z,19.30
2022-08-12T23:24:28.864Z,19.30
2022-08-12T23:27:14.553Z,19.30
2022-08-12T23:29:43.930Z,19.30
2022-08-12T23:32:45.719Z,19.20
2022-08-12T23:35:18.633Z,19.20
2022-08-12T23:37:53.770Z,19.20
2022-08-12T23:40:24.460Z,19.20
2022-08-12T23:42:55.015Z,19.20
2022-08-12T23:45:31.274Z,19.20
2022-08-12T23:48:00.395Z,19.20
2022-08-12T23:50:34.201Z,19.20
2022-08-12T23:53:06.653Z,19.10
2022-08-12T23:55:45.757Z,19.10
2022-08-12T23:58:20.905Z,19.00
